createdAt,value
2022-08-05T00:00:20.032Z,8.65
2022-08-05T00:02:51.816Z,8.05
2022-08-05T00:06:03.280Z,7.50
2022-08-05T00:08:34.169Z,7.80
2022-08-05T00:11:00.904Z,10.25
2022-08-05T00:13:39.284Z,8.30
2022-08-05T00:16:10.922Z,8.30
2022-08-05T00:18:44.238Z,8.10
2022-08-05T00:21:14.545Z,7.85
2022-08-05T00:23:46.915Z,7.75
2022-08-05T00:26:22.633Z,8.18
2022-08-05T00:28:52.587Z,9.57
2022-08-05T00:31:53.349Z,8.43
2022-08-05T00:34:55.374Z,7.75
2022-08-05T00:37:09.766Z,7.55
2022-08-05T00:39:57.163Z,7.97
2022-08-05T00:42:34.777Z,8.35
2022-08-05T00:45:08.509Z,8.10
2022-08-05T00:47:56.220Z,8.93
2022-08-05T00:50:25.846Z,8.68
2022-08-05T00:52:55.305Z,8.18
2022-08-05T00:55:34.142Z,8.20
2022-08-05T00:58:11.655Z,8.40
2022-08-05T01:00:42.511Z,8.57
2022-08-05T01:03:22.264Z,7.82
2022-08-05T01:05:51.767Z,8.45
2022-08-05T01:08:39.142Z,7.65
2022-08-05T01:11:22.484Z,8.52
2022-08-05T01:14:03.182Z,7.85
2022-08-05T01:16:44.121Z,7.63
2022-08-05T01:19:36.706Z,7.43
2022-08-05T01:22:34.038Z,7.70
2022-08-05T01:25:18.876Z,8.20
2022-08-05T01:28:11.067Z,7.85
2022-08-05T01:30:53.568Z,7.97
2022-08-05T01:33:29.545Z,7.57
2022-08-05T01:36:13.022Z,8.20
2022-08-05T01:38:48.377Z,8.85
2022-08-05T01:41:22.139Z,8.35
2022-08-05T01:43:53.830Z,8.27
2022-08-05T01:46:42.154Z,7.50
2022-08-05T01:49:24.182Z,7.88
2022-08-05T01:51:58.665Z,8.13
2022-08-05T01:54:32.704Z,11.48
2022-08-05T01:58:10.630Z,8.23
2022-08-05T01:59:56.101Z,8.82
2022-08-05T02:02:30.597Z,8.15
2022-08-05T02:05:04.742Z,10.18
2022-08-05T02:07:43.053Z,8.23
2022-08-05T02:10:30.075Z,8.38
2022-08-05T02:13:02.686Z,9.73
2022-08-05T02:15:38.129Z,8.00
2022-08-05T02:18:30.687Z,8.30
2022-08-05T02:21:05.691Z,8.63
2022-08-05T02:23:38.415Z,9.05
2022-08-05T02:26:11.846Z,7.88
2022-08-05T02:28:45.970Z,8.93
2022-08-05T02:31:21.327Z,8.65
2022-08-05T02:33:57.473Z,9.32
2022-08-05T02:36:31.433Z,8.15
2022-08-05T02:39:01.791Z,8.82
2022-08-05T02:41:36.400Z,8.45
2022-08-05T02:44:21.918Z,8.55
2022-08-05T02:46:59.903Z,8.55
2022-08-05T02:49:36.492Z,9.63
2022-08-05T02:52:08.748Z,8.45
2022-08-05T02:54:41.561Z,8.60
2022-08-05T02:58:12.113Z,9.00
2022-08-05T03:00:01.887Z,9.30
2022-08-05T03:02:35.799Z,11.65
2022-08-05T03:05:06.073Z,8.50
2022-08-05T03:07:56.592Z,8.68
2022-08-05T03:10:25.728Z,8.32
2022-08-05T03:12:55.169Z,8.60
2022-08-05T03:15:24.366Z,8.40
2022-08-05T03:17:57.901Z,8.70
2022-08-05T03:20:27.700Z,8.48
2022-08-05T03:22:58.025Z,8.65
2022-08-05T03:25:33.643Z,9.43
2022-08-05T03:28:18.809Z,8.75
2022-08-05T03:30:49.560Z,8.77
2022-08-05T03:33:20.805Z,9.13
2022-08-05T03:35:51.966Z,8.93
2022-08-05T03:38:24.008Z,8.77
2022-08-05T03:41:04.033Z,9.55
2022-08-05T03:44:08.401Z,10.93
2022-08-05T03:46:26.691Z,9.90
2022-08-05T03:48:59.468Z,11.10
2022-08-05T03:52:49.490Z,11.65
2022-08-05T03:55:49.907Z,12.60
2022-08-05T03:57:28.973Z,10.57
2022-08-05T04:00:12.717Z,11.00
2022-08-05T04:02:51.985Z,10.93
2022-08-05T04:05:34.012Z,11.13
2022-08-05T04:08:05.753Z,12.38
2022-08-05T04:10:44.898Z,12.68
2022-08-05T04:13:13.436Z,11.50
2022-08-05T04:16:03.017Z,10.82
2022-08-05T04:18:30.428Z,10.73
2022-08-05T04:21:00.158Z,10.50
2022-08-05T04:24:05.416Z,10.73
2022-08-05T04:26:18.858Z,10.77
2022-08-05T04:28:51.058Z,10.88
2022-08-05T04:31:20.485Z,10.18
2022-08-05T04:34:17.873Z,10.05
2022-08-05T04:36:46.444Z,10.52
2022-08-05T04:39:18.777Z,9.80
2022-08-05T04:41:48.004Z,11.85
2022-08-05T04:44:21.348Z,9.95
2022-08-05T04:46:58.612Z,10.43
2022-08-05T04:49:38.415Z,11.93
2022-08-05T04:52:16.811Z,12.38
2022-08-05T04:54:47.000Z,13.00
2022-08-05T04:57:17.874Z,11.00
2022-08-05T04:59:48.277Z,12.13
2022-08-05T05:02:37.656Z,11.73
2022-08-05T05:05:26.234Z,12.60
2022-08-05T05:07:56.639Z,12.75
2022-08-05T05:10:29.868Z,11.88
2022-08-05T05:12:58.670Z,11.65
2022-08-05T05:15:56.841Z,11.45
2022-08-05T05:18:31.146Z,11.18
2022-08-05T05:21:03.215Z,10.95
2022-08-05T05:23:39.398Z,10.60
2022-08-05T05:26:28.370Z,10.95
2022-08-05T05:29:01.352Z,10.65
2022-08-05T05:34:02.167Z,11.32
2022-08-05T05:36:31.686Z,10.23
2022-08-05T05:39:03.634Z,10.65
2022-08-05T05:41:40.003Z,10.05
2022-08-05T05:44:35.559Z,9.65
2022-08-05T05:46:58.091Z,9.82
2022-08-05T05:49:26.705Z,9.20
2022-08-05T05:51:55.194Z,9.85
2022-08-05T05:54:49.831Z,8.70
2022-08-05T05:57:13.712Z,9.27
2022-08-05T05:59:49.010Z,8.48
2022-08-05T06:02:32.531Z,8.48
2022-08-05T06:05:10.545Z,8.65
2022-08-05T06:08:01.503Z,9.32
2022-08-05T06:10:37.486Z,8.73
2022-08-05T06:13:21.154Z,8.88
2022-08-05T06:16:30.073Z,9.20
2022-08-05T06:18:40.216Z,9.50
2022-08-05T06:21:16.569Z,9.77
2022-08-05T06:23:46.961Z,8.98
2022-08-05T06:26:21.314Z,8.85
2022-08-05T06:28:55.437Z,9.52
2022-08-05T06:31:30.476Z,8.90
2022-08-05T06:34:06.803Z,8.52
2022-08-05T06:36:53.548Z,8.48
2022-08-05T06:39:27.655Z,8.77
2022-08-05T06:41:58.914Z,8.43
2022-08-05T06:44:28.276Z,8.45
2022-08-05T06:46:57.436Z,8.38
2022-08-05T06:50:00.093Z,8.52
2022-08-05T06:52:36.863Z,9.02
2022-08-05T06:55:03.189Z,8.77
2022-08-05T06:57:57.534Z,8.73
2022-08-05T07:00:24.487Z,8.50
2022-08-05T07:02:54.294Z,8.27
2022-08-05T07:05:36.922Z,7.72
2022-08-05T07:08:10.623Z,8.55
2022-08-05T07:10:52.362Z,7.97
2022-08-05T07:13:57.687Z,8.15
2022-08-05T07:17:56.300Z,8.35
2022-08-05T07:22:28.249Z,7.50
2022-08-05T07:24:59.736Z,7.40
2022-08-05T07:27:58.374Z,7.25
2022-08-05T07:30:33.738Z,7.35
2022-08-05T07:33:05.558Z,7.75
2022-08-05T07:35:55.693Z,7.55
2022-08-05T07:38:33.428Z,7.57
2022-08-05T07:42:09.498Z,7.63
2022-08-05T07:43:53.339Z,7.30
2022-08-05T07:46:27.379Z,7.78
2022-08-05T07:49:02.294Z,7.90
2022-08-05T07:51:37.581Z,8.35
2022-08-05T07:54:10.606Z,7.40
2022-08-05T07:57:01.451Z,8.30
2022-08-05T07:59:39.047Z,7.25
2022-08-05T08:02:15.729Z,7.03
2022-08-05T08:04:47.450Z,6.90
2022-08-05T08:07:16.239Z,7.47
2022-08-05T08:09:46.436Z,7.55
2022-08-05T08:12:33.294Z,7.45
2022-08-05T08:15:10.873Z,7.53
2022-08-05T08:17:49.820Z,7.55
2022-08-05T08:20:59.896Z,7.35
2022-08-05T08:23:59.854Z,7.50
2022-08-05T08:25:59.213Z,7.53
2022-08-05T08:28:37.423Z,7.28
2022-08-05T08:31:18.294Z,7.47
2022-08-05T08:33:51.732Z,7.70
2022-08-05T08:36:38.800Z,7.53
2022-08-05T08:39:15.507Z,8.20
2022-08-05T08:41:51.091Z,8.18
2022-08-05T08:45:24.098Z,7.95
2022-08-05T08:48:06.178Z,7.85
2022-08-05T08:50:30.488Z,7.47
2022-08-05T08:53:07.994Z,9.90
2022-08-05T08:56:03.041Z,8.40
2022-08-05T08:58:43.081Z,8.95
2022-08-05T09:01:16.294Z,8.60
2022-08-05T09:03:47.486Z,8.80
2022-08-05T09:06:21.335Z,8.23
2022-08-05T09:08:57.181Z,8.57
2022-08-05T09:11:52.170Z,8.23
2022-08-05T09:14:57.460Z,8.68
2022-08-05T09:17:03.318Z,8.70
2022-08-05T09:19:36.806Z,9.18
2022-08-05T09:22:32.116Z,9.48
2022-08-05T09:25:13.697Z,8.63
2022-08-05T09:28:04.147Z,8.95
2022-08-05T09:30:35.645Z,8.50
2022-08-05T09:33:07.432Z,9.70
2022-08-05T09:35:36.269Z,8.45
2022-08-05T09:38:16.199Z,9.35
2022-08-05T09:40:52.666Z,9.35
2022-08-05T09:43:41.938Z,9.85
2022-08-05T09:46:27.701Z,8.93
2022-08-05T09:49:07.805Z,9.55
2022-08-05T09:51:49.380Z,8.75
2022-08-05T09:54:31.979Z,8.48
2022-08-05T09:57:01.510Z,8.63
2022-08-05T09:59:35.195Z,8.13
2022-08-05T10:02:06.475Z,7.68
2022-08-05T10:04:41.165Z,9.63
2022-08-05T10:07:21.013Z,7.43
2022-08-05T10:10:14.544Z,8.18
2022-08-05T10:12:50.394Z,8.32
2022-08-05T10:15:25.606Z,6.68
2022-08-05T10:18:09.732Z,7.40
2022-08-05T10:20:40.088Z,7.03
2022-08-05T10:23:22.136Z,7.00
2022-08-05T10:26:00.236Z,7.10
2022-08-05T10:28:30.489Z,7.03
2022-08-05T10:32:50.892Z,6.15
2022-08-05T10:33:54.014Z,6.22
2022-08-05T10:36:23.712Z,6.65
2022-08-05T10:39:01.553Z,5.75
2022-08-05T10:41:48.337Z,6.68
2022-08-05T10:44:20.113Z,6.32
2022-08-05T10:46:54.260Z,5.78
2022-08-05T10:49:27.100Z,6.35
2022-08-05T10:52:00.656Z,6.63
2022-08-05T10:54:56.031Z,6.38
2022-08-05T10:57:29.524Z,7.13
2022-08-05T11:00:19.595Z,7.20
2022-08-05T11:03:22.991Z,6.03
2022-08-05T11:06:15.407Z,6.43
2022-08-05T11:09:32.326Z,6.00
2022-08-05T11:12:42.390Z,5.60
2022-08-05T11:15:24.055Z,5.93
2022-08-05T11:18:30.174Z,5.50
2022-08-05T11:21:02.877Z,6.45
2022-08-05T11:24:03.051Z,5.38
2022-08-05T11:26:28.563Z,6.50
2022-08-05T11:29:11.709Z,6.20
2022-08-05T11:31:58.204Z,6.25
2022-08-05T11:34:47.234Z,6.40
2022-08-05T11:38:26.219Z,8.15
2022-08-05T11:41:01.738Z,9.40
2022-08-05T11:44:05.723Z,11.02
2022-08-05T11:46:34.978Z,6.78
2022-08-05T11:49:06.361Z,4.65
2022-08-05T11:51:44.631Z,7.82
2022-08-05T11:54:33.690Z,7.43
2022-08-05T11:57:08.408Z,5.40
2022-08-05T11:59:53.257Z,5.22
2022-08-05T12:02:31.329Z,6.18
2022-08-05T12:05:08.227Z,5.38
2022-08-05T12:08:09.013Z,4.38
2022-08-05T12:10:45.768Z,3.85
2022-08-05T12:13:17.466Z,6.63
2022-08-05T12:15:56.171Z,3.50
2022-08-05T12:18:32.973Z,3.75
2022-08-05T12:21:13.201Z,3.25
2022-08-05T12:23:54.407Z,3.72
2022-08-05T12:26:23.853Z,3.13
2022-08-05T12:28:52.576Z,3.45
2022-08-05T12:31:32.464Z,3.30
2022-08-05T12:34:14.684Z,3.83
2022-08-05T12:36:53.433Z,3.00
2022-08-05T12:39:22.334Z,3.17
2022-08-05T12:41:56.595Z,2.97
2022-08-05T12:44:33.215Z,2.83
2022-08-05T12:47:03.590Z,2.83
2022-08-05T12:50:03.564Z,3.08
2022-08-05T12:52:41.841Z,2.70
2022-08-05T12:55:22.649Z,3.78
2022-08-05T12:58:38.043Z,3.05
2022-08-05T13:02:03.285Z,2.88
2022-08-05T13:03:33.476Z,2.83
2022-08-05T13:06:02.059Z,2.85
2022-08-05T13:08:32.713Z,2.70
2022-08-05T13:11:02.404Z,3.38
2022-08-05T13:14:05.434Z,2.70
2022-08-05T13:16:25.115Z,2.95
2022-08-05T13:18:58.687Z,2.67
2022-08-05T13:21:37.978Z,2.50
2022-08-05T13:24:38.121Z,3.08
2022-08-05T13:27:10.988Z,2.97
2022-08-05T13:29:39.618Z,2.60
2022-08-05T13:32:33.011Z,2.40
2022-08-05T13:35:03.476Z,2.50
2022-08-05T13:37:34.609Z,2.22
2022-08-05T13:40:16.089Z,2.60
2022-08-05T13:42:55.789Z,2.75
2022-08-05T13:45:24.075Z,2.08
2022-08-05T13:48:08.927Z,2.58
2022-08-05T13:50:50.670Z,2.58
2022-08-05T13:53:21.508Z,4.15
2022-08-05T13:55:58.937Z,3.75
2022-08-05T13:58:30.824Z,2.42
2022-08-05T14:00:59.731Z,2.95
2022-08-05T14:03:28.744Z,3.08
2022-08-05T14:06:25.437Z,4.30
2022-08-05T14:08:44.705Z,4.30
2022-08-05T14:11:21.060Z,4.60
2022-08-05T14:13:54.787Z,3.90
2022-08-05T14:16:25.465Z,3.88
2022-08-05T14:18:53.852Z,4.25
2022-08-05T14:22:07.716Z,3.80
2022-08-05T14:24:11.092Z,3.70
2022-08-05T14:26:47.158Z,6.13
2022-08-05T14:29:29.033Z,4.88
2022-08-05T14:32:12.213Z,5.53
2022-08-05T14:34:42.230Z,5.13
2022-08-05T14:37:13.375Z,4.25
2022-08-05T14:39:50.230Z,4.60
2022-08-05T14:42:26.834Z,4.93
2022-08-05T14:44:56.559Z,4.15
2022-08-05T14:48:02.927Z,5.55
2022-08-05T14:50:13.778Z,5.63
2022-08-05T14:52:56.938Z,4.30
2022-08-05T14:55:39.173Z,4.40
2022-08-05T14:58:13.782Z,4.20
2022-08-05T15:00:58.904Z,3.88
2022-08-05T15:03:33.664Z,4.03
2022-08-05T15:06:15.241Z,5.13
2022-08-05T15:09:01.520Z,4.28
2022-08-05T15:11:51.186Z,4.43
2022-08-05T15:14:34.436Z,4.30
2022-08-05T15:17:05.526Z,5.88
2022-08-05T15:19:48.964Z,4.35
2022-08-05T15:22:17.833Z,6.55
2022-08-05T15:24:46.075Z,4.13
2022-08-05T15:27:14.998Z,4.60
2022-08-05T15:29:44.577Z,4.65
2022-08-05T15:32:12.819Z,4.68
2022-08-05T15:34:41.144Z,4.47
2022-08-05T15:37:14.802Z,4.28
2022-08-05T15:41:00.921Z,4.50
2022-08-05T15:42:55.072Z,4.28
2022-08-05T15:45:38.277Z,4.57
2022-08-05T15:48:07.569Z,4.03
2022-08-05T15:50:36.006Z,4.82
2022-08-05T15:53:06.401Z,4.55
2022-08-05T15:56:03.473Z,4.18
2022-08-05T15:58:25.810Z,4.00
2022-08-05T16:01:11.997Z,4.80
2022-08-05T16:03:48.593Z,4.50
2022-08-05T16:06:19.584Z,4.93
2022-08-05T16:08:50.927Z,4.78
2022-08-05T16:11:42.872Z,5.00
2022-08-05T16:14:10.523Z,4.68
2022-08-05T16:16:47.604Z,5.18
2022-08-05T16:19:25.459Z,5.85
2022-08-05T16:22:04.916Z,5.95
2022-08-05T16:24:41.567Z,5.97
2022-08-05T16:27:32.206Z,5.90
2022-08-05T16:30:23.267Z,6.40
2022-08-05T16:32:55.776Z,5.47
2022-08-05T16:35:28.032Z,6.75
2022-08-05T16:38:13.619Z,6.28
2022-08-05T16:40:51.692Z,5.95
2022-08-05T16:43:24.372Z,6.05
2022-08-05T16:46:03.825Z,5.53
2022-08-05T16:48:39.005Z,5.47
2022-08-05T16:51:09.505Z,4.90
2022-08-05T16:54:05.395Z,5.85
2022-08-05T16:56:29.270Z,5.68
2022-08-05T16:58:58.483Z,5.53
2022-08-05T17:01:52.546Z,5.93
2022-08-05T17:04:18.790Z,6.00
2022-08-05T17:06:53.085Z,5.53
2022-08-05T17:09:23.106Z,6.20
2022-08-05T17:11:54.777Z,5.43
2022-08-05T17:14:37.663Z,7.07
2022-08-05T17:17:14.366Z,6.35
2022-08-05T17:19:46.501Z,6.65
2022-08-05T17:22:24.682Z,6.97
2022-08-05T17:24:56.885Z,6.60
2022-08-05T17:27:33.492Z,7.35
2022-08-05T17:30:03.615Z,6.88
2022-08-05T17:32:33.785Z,6.85
2022-08-05T17:35:04.738Z,7.32
2022-08-05T17:37:41.937Z,6.93
2022-08-05T17:40:16.031Z,8.20
2022-08-05T17:42:52.197Z,8.00
2022-08-05T17:45:25.115Z,7.43
2022-08-05T17:47:58.091Z,7.72
2022-08-05T17:50:30.835Z,8.00
2022-08-05T17:53:00.737Z,7.82
2022-08-05T17:55:37.911Z,7.97
2022-08-05T17:58:12.267Z,8.45
2022-08-05T18:00:44.519Z,9.35
2022-08-05T18:03:28.044Z,8.13
2022-08-05T18:06:11.899Z,9.45
2022-08-05T18:08:45.102Z,10.23
2022-08-05T18:11:24.313Z,9.93
2022-08-05T18:13:59.586Z,9.00
2022-08-05T18:16:30.269Z,9.65
2022-08-05T18:18:59.825Z,9.13
2022-08-05T18:22:08.226Z,9.18
2022-08-05T18:24:17.815Z,7.95
2022-08-05T18:26:46.107Z,8.13
2022-08-05T18:29:16.858Z,9.00
2022-08-05T18:31:45.377Z,9.00
2022-08-05T18:34:13.951Z,9.20
2022-08-05T18:36:44.511Z,9.90
2022-08-05T18:39:42.462Z,8.98
2022-08-05T18:42:04.969Z,10.13
2022-08-05T18:44:51.700Z,9.63
2022-08-05T18:47:26.713Z,11.02
2022-08-05T18:50:13.340Z,10.07
2022-08-05T18:52:51.335Z,11.30
2022-08-05T18:55:22.347Z,12.13
2022-08-05T18:57:53.276Z,11.60
2022-08-05T19:00:29.080Z,12.15
2022-08-05T19:03:03.948Z,10.82
2022-08-05T19:06:12.092Z,11.52
2022-08-05T19:08:30.611Z,8.18
2022-08-05T19:11:04.753Z,6.68
2022-08-05T19:13:36.863Z,5.50
2022-08-05T19:16:24.536Z,2.83
2022-08-05T19:18:56.732Z,2.95
2022-08-05T19:21:27.619Z,3.58
2022-08-05T19:24:08.986Z,3.95
2022-08-05T19:26:54.496Z,3.45
2022-08-05T19:29:26.751Z,3.75
2022-08-05T19:32:04.445Z,5.55
2022-08-05T19:34:32.973Z,6.38
2022-08-05T19:37:01.358Z,7.28
2022-08-05T19:39:32.045Z,3.75
2022-08-05T19:42:15.249Z,4.30
2022-08-05T19:44:44.909Z,4.38
2022-08-05T19:47:15.278Z,5.47
2022-08-05T19:49:45.110Z,6.20
2022-08-05T19:52:31.242Z,3.88
2022-08-05T19:55:06.952Z,4.70
2022-08-05T19:57:46.492Z,3.22
2022-08-05T20:00:25.664Z,4.57
2022-08-05T20:02:54.093Z,4.70
2022-08-05T20:05:24.282Z,2.72
2022-08-05T20:07:58.879Z,2.60
2022-08-05T20:10:29.054Z,4.93
2022-08-05T20:12:57.383Z,3.25
2022-08-05T20:15:52.239Z,2.70
2022-08-05T20:18:32.781Z,2.15
2022-08-05T20:21:02.556Z,2.70
2022-08-05T20:23:40.432Z,3.08
2022-08-05T20:26:21.997Z,4.13
2022-08-05T20:28:55.564Z,3.72
2022-08-05T20:31:28.563Z,2.58
2022-08-05T20:34:11.669Z,3.70
2022-08-05T20:36:43.070Z,3.00
2022-08-05T20:39:13.240Z,3.08
2022-08-05T20:41:45.161Z,4.05
2022-08-05T20:44:16.937Z,2.50
2022-08-05T20:46:50.812Z,2.50
2022-08-05T20:49:24.573Z,2.95
2022-08-05T20:51:54.787Z,3.25
2022-08-05T20:54:24.751Z,2.33
2022-08-05T20:56:54.704Z,2.60
2022-08-05T20:59:27.137Z,4.20
2022-08-05T21:02:11.489Z,2.85
2022-08-05T21:04:47.052Z,3.35
2022-08-05T21:07:15.464Z,5.90
2022-08-05T21:09:50.271Z,4.13
2022-08-05T21:12:26.680Z,2.75
2022-08-05T21:14:55.228Z,3.17
2022-08-05T21:17:26.280Z,2.72
2022-08-05T21:19:57.374Z,2.22
2022-08-05T21:22:27.199Z,2.00
2022-08-05T21:24:56.664Z,1.83
2022-08-05T21:27:27.400Z,1.95
2022-08-05T21:29:56.640Z,2.25
2022-08-05T21:32:26.900Z,2.95
2022-08-05T21:35:16.643Z,2.10
2022-08-05T21:37:52.962Z,1.90
2022-08-05T21:40:23.109Z,1.90
2022-08-05T21:42:53.936Z,2.92
2022-08-05T21:45:24.902Z,1.75
2022-08-05T21:47:57.981Z,3.10
2022-08-05T21:50:26.517Z,2.38
2022-08-05T21:52:59.080Z,2.03
2022-08-05T21:56:01.197Z,2.40
2022-08-05T21:58:31.803Z,1.88
2022-08-05T22:01:01.371Z,1.60
2022-08-05T22:03:49.027Z,2.10
2022-08-05T22:06:22.944Z,2.38
2022-08-05T22:08:52.499Z,1.80
2022-08-05T22:11:35.097Z,1.95
2022-08-05T22:14:35.503Z,1.80
2022-08-05T22:16:56.894Z,2.45
2022-08-05T22:19:57.476Z,1.83
2022-08-05T22:22:17.106Z,2.35
2022-08-05T22:25:21.170Z,1.13
2022-08-05T22:28:09.000Z,2.30
2022-08-05T22:30:44.011Z,2.35
2022-08-05T22:33:24.008Z,1.42
2022-08-05T22:36:14.605Z,1.73
2022-08-05T22:38:48.185Z,1.58
2022-08-05T22:42:04.335Z,1.20
2022-08-05T22:44:06.966Z,1.50
2022-08-05T22:46:40.131Z,1.80
2022-08-05T22:49:12.404Z,3.40
2022-08-05T22:52:05.155Z,1.70
2022-08-05T22:54:36.934Z,1.70
2022-08-05T22:57:05.859Z,1.40
2022-08-05T22:59:45.305Z,2.00
2022-08-05T23:02:29.603Z,1.27
2022-08-05T23:05:02.059Z,1.92
2022-08-05T23:07:48.673Z,1.52
2022-08-05T23:10:20.942Z,1.67
2022-08-05T23:12:54.947Z,2.33
2022-08-05T23:15:29.637Z,2.33
2022-08-05T23:18:06.193Z,2.28
2022-08-05T23:20:40.598Z,1.90
2022-08-05T23:23:11.572Z,2.47
2022-08-05T23:25:52.713Z,2.38
2022-08-05T23:28:27.675Z,2.42
2022-08-05T23:31:16.136Z,3.13
2022-08-05T23:34:04.281Z,2.38
2022-08-05T23:36:39.587Z,3.20
2022-08-05T23:39:17.252Z,3.50
2022-08-05T23:42:01.256Z,2.85
2022-08-05T23:44:31.336Z,2.40
2022-08-05T23:47:02.468Z,2.67
2022-08-05T23:49:45.614Z,2.72
2022-08-05T23:52:30.716Z,2.50
2022-08-05T23:55:01.960Z,2.60
2022-08-05T23:57:34.082Z,2.97
